Time;durP1;ratioP1;P1;durP2;ratioP2;P2;SDS_P1;SDS_P2;PMS_P1;PMS_P2;Temp;Humidity;BMP_temperature;BMP_pressure;BME280_temperature;BME280_humidity;BME280_pressure;Samples;Min_cycle;Max_cycle;Signal;HPM_P1;HPM_P2
2024/02/25 00:01:02;;;;;;;2.10;1.60;;;;;;;23.34;nan;97919.91;7391723;19;20029;-55
2024/02/25 00:03:28;;;;;;;26.15;5.32;;;;;;;23.27;nan;97920.81;7394469;19;20011;-55
2024/02/25 00:05:54;;;;;;;11.70;3.13;;;;;;;23.45;nan;97930.56;7393623;19;20860;-55
2024/02/25 00:08:20;;;;;;;4.65;2.08;;;;;;;22.75;nan;97929.41;7392503;19;20010;-55
2024/02/25 00:10:46;;;;;;;2.45;2.17;;;;;;;20.56;nan;97928.25;7392929;19;20031;-55
2024/02/25 00:13:12;;;;;;;23.52;3.20;;;;;;;19.65;nan;97940.88;7392539;19;20346;-55
2024/02/25 00:15:38;;;;;;;9.00;2.28;;;;;;;21.29;nan;97928.84;7393753;19;20336;-55
2024/02/25 00:18:04;;;;;;;3.47;1.95;;;;;;;21.22;nan;97926.19;7394105;19;20340;-55
2024/02/25 00:20:31;;;;;;;8.75;2.80;;;;;;;18.38;nan;97937.25;7395369;19;20477;-55
2024/02/25 00:22:57;;;;;;;7.03;4.57;;;;;;;17.73;nan;97931.69;7393028;19;20014;-55
2024/02/25 00:25:23;;;;;;;4.60;2.75;;;;;;;19.07;nan;97936.09;7391743;19;20610;-55
2024/02/25 00:27:49;;;;;;;11.95;2.40;;;;;;;18.64;nan;97931.06;7396349;19;20471;-55
2024/02/25 00:30:15;;;;;;;8.05;2.33;;;;;;;20.86;nan;97930.56;7400551;19;20015;-55
2024/02/25 00:32:41;;;;;;;3.38;1.20;;;;;;;18.19;nan;97938.50;7400777;19;20052;-55
2024/02/25 00:35:08;;;;;;;7.72;3.22;;;;;;;19.99;nan;97928.00;7399869;19;20366;-55
2024/02/25 00:37:34;;;;;;;2.33;2.03;;;;;;;18.10;nan;97939.13;7397754;19;20036;-55
2024/02/25 00:40:00;;;;;;;1.40;1.35;;;;;;;18.37;nan;97936.50;7404828;19;20019;-55
2024/02/25 00:42:26;;;;;;;5.80;2.15;;;;;;;20.83;nan;97928.94;7404015;19;20011;-55
2024/02/25 00:44:53;;;;;;;5.30;1.52;;;;;;;22.16;nan;97921.72;7400240;19;20006;-55
2024/02/25 00:47:19;;;;;;;1.23;1.17;;;;;;;21.74;nan;97921.53;7400180;19;20014;-56
2024/02/25 00:49:45;;;;;;;0.80;0.80;;;;;;;20.05;nan;97920.75;7402474;19;20080;-55
2024/02/25 00:52:12;;;;;;;12.13;2.08;;;;;;;21.04;nan;97926.31;7398080;19;20003;-55
2024/02/25 00:54:43;;;;;;;3.15;2.10;;;;;;;21.93;nan;97930.00;7398926;19;20037;-55
2024/02/25 00:57:09;;;;;;;6.43;3.45;;;;;;;22.05;nan;97925.19;7400009;19;20011;-55
2024/02/25 00:59:35;;;;;;;2.47;2.28;;;;;;;23.72;nan;97919.53;7399247;19;20014;-55
2024/02/25 01:02:01;;;;;;;12.23;1.50;;;;;;;22.72;nan;97924.91;7403272;19;20007;-55
2024/02/25 01:04:27;;;;;;;5.32;2.40;;;;;;;22.76;nan;97921.63;7399196;19;20047;-54
2024/02/25 01:06:53;;;;;;;5.35;2.17;;;;;;;22.57;nan;97920.34;7399144;19;20078;-55
2024/02/25 01:09:19;;;;;;;7.47;2.75;;;;;;;22.50;nan;97926.94;7399311;19;20018;-55
2024/02/25 01:11:45;;;;;;;1.92;1.77;;;;;;;22.62;nan;97927.06;7398920;19;20074;-55
2024/02/25 01:14:13;;;;;;;7.90;2.88;;;;;;;22.54;nan;97924.38;7403042;19;20466;-55
2024/02/25 01:16:39;;;;;;;6.63;3.25;;;;;;;23.27;nan;97915.88;7402715;19;20014;-55
2024/02/25 01:19:05;;;;;;;3.85;2.13;;;;;;;20.97;nan;97913.00;7402992;19;20465;-55
2024/02/25 01:21:31;;;;;;;4.22;1.85;;;;;;;20.77;nan;97914.31;7398388;19;20022;-55
2024/02/25 01:23:58;;;;;;;1.10;0.75;;;;;;;20.99;nan;97912.41;7397990;19;20010;-55
2024/02/25 01:26:24;;;;;;;1.10;0.95;;;;;;;22.43;nan;97915.78;7401094;19;20019;-55
2024/02/25 01:28:50;;;;;;;2.10;1.77;;;;;;;22.95;nan;97913.00;7401166;19;20003;-55
2024/02/25 01:31:16;;;;;;;2.67;2.42;;;;;;;23.44;nan;97903.50;7400942;19;20035;-55
2024/02/25 01:33:43;;;;;;;5.32;1.27;;;;;;;23.07;nan;97908.84;7397514;19;20074;-55
2024/02/25 01:36:09;;;;;;;5.47;1.58;;;;;;;22.58;nan;97921.09;7400721;19;20037;-54
2024/02/25 01:38:35;;;;;;;2.55;1.45;;;;;;;22.52;nan;97918.56;7396935;19;20014;-55
2024/02/25 01:41:01;;;;;;;4.32;1.38;;;;;;;22.17;nan;97911.88;7396002;19;20036;-55
2024/02/25 01:43:27;;;;;;;2.65;1.45;;;;;;;21.64;nan;97918.69;7397800;19;20010;-55
2024/02/25 01:45:53;;;;;;;1.33;0.85;;;;;;;20.44;nan;97924.50;7398248;19;20018;-55
2024/02/25 01:48:20;;;;;;;9.73;3.15;;;;;;;20.23;nan;97918.63;7399697;19;20074;-54
2024/02/25 01:50:46;;;;;;;6.13;1.85;;;;;;;19.80;nan;97916.59;7399489;19;20018;-54
2024/02/25 01:53:13;;;;;;;3.83;0.90;;;;;;;19.71;nan;97917.28;7396979;19;20344;-55
2024/02/25 01:55:42;;;;;;;1.05;0.95;;;;;;;19.35;nan;97920.75;7397666;19;20014;-55
2024/02/25 01:58:09;;;;;;;2.53;1.35;;;;;;;19.51;nan;97919.97;7398953;19;20018;-55
2024/02/25 02:00:35;;;;;;;6.03;1.45;;;;;;;19.05;nan;97919.00;7401422;19;20018;-55
2024/02/25 02:03:01;;;;;;;4.32;2.33;;;;;;;18.05;nan;97914.78;7395656;19;20355;-55
2024/02/25 02:05:28;;;;;;;0.95;0.88;;;;;;;17.08;nan;97918.78;7396471;19;20022;-55
2024/02/25 02:07:54;;;;;;;1.85;0.80;;;;;;;16.69;nan;97920.19;7396846;19;20010;-55
2024/02/25 02:10:21;;;;;;;4.32;2.47;;;;;;;16.60;nan;97923.56;7399346;19;20503;-55
2024/02/25 02:12:47;;;;;;;1.15;1.08;;;;;;;15.77;nan;97921.41;7396202;19;20011;-55
2024/02/25 02:15:15;;;;;;;2.42;1.40;;;;;;;15.79;nan;97918.03;7396609;19;20021;-55
2024/02/25 02:17:43;;;;;;;6.15;1.45;;;;;;;20.35;nan;97911.84;7396486;19;20010;-55
2024/02/25 02:20:16;;;;;;;0.38;0.38;;;;;;;21.76;nan;97907.50;7401069;19;20399;-55
2024/02/25 02:22:43;;;;;;;1.73;1.13;;;;;;;22.48;nan;97900.56;7396889;19;20066;-54
2024/02/25 02:25:10;;;;;;;12.27;2.63;;;;;;;22.79;nan;97906.97;7395464;19;20035;-55
2024/02/25 02:27:39;;;;;;;9.23;1.65;;;;;;;22.71;nan;97900.00;7396746;19;20017;-55
2024/02/25 02:30:06;;;;;;;1.33;1.25;;;;;;;22.85;nan;97895.28;7396692;19;20014;-55
2024/02/25 02:32:32;;;;;;;3.20;1.25;;;;;;;23.00;nan;97897.72;7396019;19;20468;-54
2024/02/25 02:34:59;;;;;;;4.53;1.30;;;;;;;23.80;nan;97905.84;7394931;19;20033;-55
2024/02/25 02:37:25;;;;;;;20.02;3.35;;;;;;;23.38;nan;97891.75;7395734;19;20066;-55
2024/02/25 02:39:52;;;;;;;1.70;0.75;;;;;;;23.48;nan;97895.25;7395986;19;20014;-55
2024/02/25 02:42:20;;;;;;;3.50;1.42;;;;;;;23.24;nan;97893.63;7399900;19;20035;-55
2024/02/25 02:44:48;;;;;;;18.15;2.30;;;;;;;22.93;nan;97890.13;7398523;19;20031;-54
2024/02/25 02:47:15;;;;;;;1.38;0.82;;;;;;;22.88;nan;97886.28;7395984;19;20019;-54
2024/02/25 02:49:41;;;;;;;3.50;1.52;;;;;;;22.65;nan;97896.75;7395470;19;20015;-55
2024/02/25 02:52:07;;;;;;;0.90;0.77;;;;;;;22.74;nan;97887.44;7398318;19;20022;-54
2024/02/25 02:54:33;;;;;;;1.27;1.17;;;;;;;22.39;nan;97893.56;7394601;19;20015;-55
2024/02/25 02:56:59;;;;;;;6.50;1.02;;;;;;;23.05;nan;97882.41;7395003;19;20015;-54
2024/02/25 02:59:25;;;;;;;0.60;0.45;;;;;;;22.87;nan;97886.91;7394731;19;20007;-55
2024/02/25 03:01:52;;;;;;;2.25;1.88;;;;;;;22.66;nan;97887.63;7397150;19;20109;-55
2024/02/25 03:04:18;;;;;;;0.90;0.90;;;;;;;22.77;nan;97880.53;7395479;19;20014;-55
2024/02/25 03:06:44;;;;;;;3.92;2.33;;;;;;;22.63;nan;97878.22;7393637;19;20022;-54
2024/02/25 03:09:13;;;;;;;18.63;2.55;;;;;;;22.34;nan;97882.53;7394984;19;20033;-55
2024/02/25 03:11:40;;;;;;;1.65;1.55;;;;;;;22.35;nan;97886.88;7397342;19;20015;-54
2024/02/25 03:14:06;;;;;;;1.85;1.70;;;;;;;22.91;nan;97875.81;7395002;19;20016;-54
2024/02/25 03:16:32;;;;;;;1.58;1.48;;;;;;;22.33;nan;97872.53;7397475;19;20066;-54
2024/02/25 03:18:59;;;;;;;5.30;1.40;;;;;;;21.62;nan;97875.28;7398571;19;20114;-55
2024/02/25 03:21:25;;;;;;;1.55;0.93;;;;;;;21.25;nan;97869.09;7395035;19;20014;-54
2024/02/25 03:23:51;;;;;;;14.80;3.10;;;;;;;21.25;nan;97865.50;7392950;19;20011;-54
2024/02/25 03:26:19;;;;;;;3.15;1.45;;;;;;;21.20;nan;97869.41;7392785;19;20462;-54
2024/02/25 03:28:45;;;;;;;9.32;1.75;;;;;;;21.17;nan;97865.69;7396827;19;20027;-55
2024/02/25 03:31:12;;;;;;;2.83;1.20;;;;;;;20.90;nan;97865.78;7397619;19;20020;-55
2024/02/25 03:33:39;;;;;;;4.68;1.48;;;;;;;20.70;nan;97867.13;7393593;19;20018;-55
2024/02/25 03:36:05;;;;;;;4.47;1.20;;;;;;;20.78;nan;97866.97;7393723;19;20017;-55
2024/02/25 03:38:32;;;;;;;6.88;1.52;;;;;;;21.22;nan;97866.72;7393592;19;20324;-55
2024/02/25 03:40:59;;;;;;;8.23;1.70;;;;;;;21.99;nan;97870.91;7397572;19;20022;-55
2024/02/25 03:43:25;;;;;;;6.95;1.13;;;;;;;21.40;nan;97870.84;7394174;19;20450;-55
2024/02/25 03:45:51;;;;;;;10.13;1.80;;;;;;;21.18;nan;97872.81;7395345;19;20018;-55
2024/02/25 03:48:17;;;;;;;1.15;1.05;;;;;;;21.25;nan;97871.16;7393698;19;20011;-55
2024/02/25 03:50:43;;;;;;;4.88;2.15;;;;;;;20.18;nan;97865.91;7394094;19;20015;-55
2024/02/25 03:53:09;;;;;;;14.88;1.90;;;;;;;20.75;nan;97871.72;7392714;19;20014;-55
2024/02/25 03:55:35;;;;;;;0.88;0.88;;;;;;;22.21;nan;97863.94;7393552;19;20078;-55
2024/02/25 03:58:02;;;;;;;1.65;1.15;;;;;;;22.46;nan;97864.25;7393491;19;20033;-55
2024/02/25 04:00:28;;;;;;;1.55;1.38;;;;;;;22.30;nan;97862.41;7393860;19;20530;-55
2024/02/25 04:02:54;;;;;;;1.17;1.15;;;;;;;22.37;nan;97870.72;7389729;19;20006;-55
2024/02/25 04:05:20;;;;;;;7.35;2.05;;;;;;;22.59;nan;97860.19;7391628;19;20348;-55
2024/02/25 04:07:47;;;;;;;1.95;1.45;;;;;;;22.72;nan;97862.47;7392766;19;20033;-55
2024/02/25 04:10:13;;;;;;;3.00;1.45;;;;;;;19.55;nan;97861.00;7392886;19;20033;-55
2024/02/25 04:12:40;;;;;;;1.13;1.05;;;;;;;19.77;nan;97864.09;7393618;19;20031;-55
2024/02/25 04:15:07;;;;;;;2.63;0.88;;;;;;;19.19;nan;97863.69;7396903;19;20013;-55
2024/02/25 04:17:34;;;;;;;1.17;0.75;;;;;;;18.91;nan;97864.97;7393090;19;20035;-55
2024/02/25 04:20:01;;;;;;;2.15;1.63;;;;;;;16.85;nan;97867.50;7392756;19;20015;-55
2024/02/25 04:22:27;;;;;;;2.22;1.98;;;;;;;16.58;nan;97867.91;7397195;19;20442;-55
2024/02/25 04:24:53;;;;;;;16.50;2.25;;;;;;;18.68;nan;97858.84;7392822;19;20046;-55
2024/02/25 04:27:19;;;;;;;4.25;1.58;;;;;;;17.82;nan;97860.66;7394515;19;20015;-55
2024/02/25 04:29:45;;;;;;;6.47;2.05;;;;;;;17.03;nan;97860.66;7397073;19;20074;-55
2024/02/25 04:32:13;;;;;;;1.70;1.15;;;;;;;16.78;nan;97857.75;7395961;19;20014;-55
2024/02/25 04:34:40;;;;;;;1.60;1.08;;;;;;;18.54;nan;97851.25;7391375;19;20023;-55
2024/02/25 04:37:07;;;;;;;5.65;1.27;;;;;;;16.62;nan;97857.03;7392166;19;20010;-55
2024/02/25 04:39:35;;;;;;;0.60;0.60;;;;;;;16.37;nan;97861.72;7392182;19;20013;-55
2024/02/25 04:42:02;;;;;;;6.10;1.50;;;;;;;16.65;nan;97853.09;7395965;19;20010;-55
2024/02/25 04:44:29;;;;;;;17.05;1.52;;;;;;;16.84;nan;97855.50;7392659;19;20010;-55
2024/02/25 04:46:55;;;;;;;3.00;1.27;;;;;;;18.54;nan;97854.06;7389883;19;20015;-55
2024/02/25 04:49:22;;;;;;;1.00;0.47;;;;;;;18.91;nan;97852.94;7391328;19;20019;-55
2024/02/25 04:51:48;;;;;;;4.03;1.17;;;;;;;19.25;nan;97844.41;7390544;19;20014;-55
2024/02/25 04:54:15;;;;;;;1.35;0.90;;;;;;;19.44;nan;97849.50;7395891;19;20018;-55
2024/02/25 04:56:42;;;;;;;6.88;2.92;;;;;;;19.16;nan;97850.03;7392502;19;20022;-52
2024/02/25 04:59:11;;;;;;;8.30;0.90;;;;;;;17.45;nan;97862.34;7392384;19;20074;-52
2024/02/25 05:01:44;;;;;;;1.30;0.63;;;;;;;21.81;nan;97846.91;7391789;19;20015;-52
2024/02/25 05:04:11;;;;;;;0.88;0.88;;;;;;;23.23;nan;97841.03;7394282;19;20010;-52
2024/02/25 05:06:37;;;;;;;2.38;2.10;;;;;;;23.42;nan;97843.72;7389720;19;20375;-52
2024/02/25 05:09:03;;;;;;;1.42;1.35;;;;;;;23.62;nan;97839.31;7391723;19;20006;-52
2024/02/25 05:11:31;;;;;;;0.28;0.28;;;;;;;23.46;nan;97838.28;7391547;19;20427;-52
2024/02/25 05:13:58;;;;;;;1.92;1.45;;;;;;;19.39;nan;97839.19;7392757;19;20070;-52
2024/02/25 05:16:25;;;;;;;4.13;1.45;;;;;;;17.46;nan;97846.22;7402289;19;20007;-52
2024/02/25 05:18:51;;;;;;;4.40;2.22;;;;;;;17.41;nan;97850.00;7398529;19;20027;-52
2024/02/25 05:21:17;;;;;;;1.42;1.33;;;;;;;16.82;nan;97837.69;7398901;19;20040;-52
2024/02/25 05:23:43;;;;;;;1.45;1.23;;;;;;;15.62;nan;97845.59;7397461;19;20010;-52
2024/02/25 05:26:09;;;;;;;2.88;1.70;;;;;;;15.64;nan;97836.63;7396765;19;20006;-52
2024/02/25 05:28:35;;;;;;;3.78;1.17;;;;;;;15.20;nan;97845.09;7398390;19;20021;-52
2024/02/25 05:31:01;;;;;;;13.52;1.75;;;;;;;14.89;nan;97846.28;7399376;19;20017;-52
2024/02/25 05:33:28;;;;;;;4.53;1.10;;;;;;;13.99;nan;97846.41;7397950;19;20011;-52
2024/02/25 05:35:54;;;;;;;0.82;0.82;;;;;;;13.56;nan;97844.19;7398366;19;20003;-52
2024/02/25 05:38:20;;;;;;;5.10;0.93;;;;;;;13.48;nan;97843.34;7401745;19;20025;-52
2024/02/25 05:40:46;;;;;;;1.58;1.48;;;;;;;13.39;nan;97849.41;7402584;19;20018;-52
2024/02/25 05:43:12;;;;;;;11.60;2.13;;;;;;;12.39;nan;97838.84;7397685;19;20027;-52
2024/02/25 05:45:39;;;;;;;1.65;1.55;;;;;;;12.32;nan;97836.69;7398682;19;20033;-52
2024/02/25 05:48:06;;;;;;;9.98;2.70;;;;;;;12.55;nan;97837.75;7397753;19;20838;-52
2024/02/25 05:50:32;;;;;;;6.03;1.17;;;;;;;13.21;nan;97839.13;7398866;19;20455;-52
2024/02/25 05:52:58;;;;;;;0.45;0.45;;;;;;;12.92;nan;97834.69;7398679;19;20022;-52
2024/02/25 05:55:24;;;;;;;1.95;1.75;;;;;;;13.07;nan;97837.69;7401969;19;20146;-52
2024/02/25 05:57:51;;;;;;;0.93;0.90;;;;;;;12.87;nan;97841.91;7397259;19;20031;-52
2024/02/25 06:00:17;;;;;;;0.57;0.57;;;;;;;12.50;nan;97846.97;7397071;19;20015;-52
2024/02/25 06:02:45;;;;;;;0.85;0.85;;;;;;;12.70;nan;97844.28;7398067;19;20035;-52
2024/02/25 06:05:15;;;;;;;1.20;0.52;;;;;;;12.58;nan;97845.78;7396396;19;20006;-52
2024/02/25 06:07:45;;;;;;;2.08;1.40;;;;;;;13.75;nan;97840.44;7396249;19;20038;-52
2024/02/25 06:10:11;;;;;;;4.70;1.45;;;;;;;15.00;nan;97840.38;7397192;19;20019;-52
2024/02/25 06:12:38;;;;;;;1.83;1.45;;;;;;;14.75;nan;97838.56;7397450;19;20042;-52
2024/02/25 06:15:06;;;;;;;3.05;1.67;;;;;;;14.58;nan;97827.06;7396621;19;20006;-52
2024/02/25 06:17:32;;;;;;;0.63;0.63;;;;;;;14.66;nan;97831.41;7400983;19;20093;-52
2024/02/25 06:19:58;;;;;;;0.50;0.50;;;;;;;14.86;nan;97835.41;7395896;19;20038;-52
2024/02/25 06:22:25;;;;;;;1.20;0.90;;;;;;;14.83;nan;97831.69;7396714;19;20450;-52
2024/02/25 06:24:51;;;;;;;1.45;1.42;;;;;;;15.09;nan;97839.09;7396310;19;20431;-52
2024/02/25 06:27:17;;;;;;;1.02;0.90;;;;;;;15.14;nan;97833.31;7397441;19;20013;-52
2024/02/25 06:29:43;;;;;;;1.40;1.30;;;;;;;15.03;nan;97841.28;7397034;19;20474;-52
2024/02/25 06:32:09;;;;;;;10.93;1.80;;;;;;;15.31;nan;97840.47;7400635;19;20082;-52
2024/02/25 06:34:35;;;;;;;2.88;2.33;;;;;;;15.62;nan;97836.44;7398515;19;20014;-52
2024/02/25 06:37:02;;;;;;;1.70;1.10;;;;;;;15.72;nan;97837.41;7400123;19;20015;-52
2024/02/25 06:39:28;;;;;;;1.02;1.02;;;;;;;15.71;nan;97839.44;7396492;19;20018;-52
2024/02/25 06:41:54;;;;;;;2.72;0.82;;;;;;;15.62;nan;97840.00;7395710;19;20344;-52
2024/02/25 06:44:20;;;;;;;1.38;1.00;;;;;;;16.13;nan;97845.47;7396530;19;20034;-52
2024/02/25 06:46:46;;;;;;;5.30;1.25;;;;;;;16.22;nan;97847.69;7399081;19;20051;-52
2024/02/25 06:49:12;;;;;;;0.73;0.57;;;;;;;15.78;nan;97852.75;7397493;19;20014;-52
2024/02/25 06:51:38;;;;;;;0.68;0.68;;;;;;;16.63;nan;97844.47;7394401;19;20021;-52
2024/02/25 06:54:04;;;;;;;0.98;0.65;;;;;;;16.33;nan;97840.97;7393907;19;20027;-52
2024/02/25 06:56:32;;;;;;;1.08;1.08;;;;;;;16.37;nan;97842.06;7399976;19;20025;-52
2024/02/25 06:58:58;;;;;;;2.28;1.08;;;;;;;15.53;nan;97851.00;7395888;19;20014;-52
2024/02/25 07:01:24;;;;;;;2.38;1.15;;;;;;;17.89;nan;97848.59;7395793;19;20687;-52
2024/02/25 07:03:50;;;;;;;0.70;0.70;;;;;;;19.23;nan;97844.25;7396010;19;20354;-52
2024/02/25 07:06:16;;;;;;;1.20;1.20;;;;;;;18.87;nan;97844.91;7394336;19;20010;-52
2024/02/25 07:08:42;;;;;;;2.13;1.20;;;;;;;18.30;nan;97843.56;7394168;19;20018;-52
2024/02/25 07:11:19;;;;;;;1.15;1.15;;;;;;;18.32;nan;97846.56;7395215;19;20011;-52
2024/02/25 07:13:46;;;;;;;3.92;0.75;;;;;;;18.53;nan;97846.94;7396205;19;20011;-52
2024/02/25 07:16:13;;;;;;;3.47;1.88;;;;;;;18.21;nan;97844.22;7397874;19;20022;-52
2024/02/25 07:18:39;;;;;;;0.20;0.20;;;;;;;18.46;nan;97836.50;7399485;19;20014;-52
2024/02/25 07:21:11;;;;;;;5.57;0.85;;;;;;;19.38;nan;97841.28;7393789;19;20454;-52
2024/02/25 07:23:41;;;;;;;0.47;0.47;;;;;;;19.23;nan;97838.63;7394488;19;20812;-52
2024/02/25 07:26:08;;;;;;;13.43;1.02;;;;;;;20.02;nan;97830.75;7395269;19;20070;-52
2024/02/25 07:28:35;;;;;;;0.75;0.75;;;;;;;19.84;nan;97837.81;7397126;19;20021;-52
2024/02/25 07:31:01;;;;;;;2.20;1.08;;;;;;;20.10;nan;97837.00;7395488;19;20015;-52
2024/02/25 07:33:27;;;;;;;1.95;1.30;;;;;;;19.90;nan;97841.13;7393115;19;20011;-52
2024/02/25 07:35:53;;;;;;;5.05;1.30;;;;;;;19.59;nan;97841.56;7395259;19;20010;-52
2024/02/25 07:38:20;;;;;;;3.03;1.00;;;;;;;19.47;nan;97837.75;7392141;19;20018;-52
2024/02/25 07:40:46;;;;;;;5.32;0.93;;;;;;;18.08;nan;97840.34;7395968;19;20035;-52
2024/02/25 07:43:12;;;;;;;0.77;0.77;;;;;;;18.11;nan;97847.66;7398631;19;20033;-52
2024/02/25 07:45:38;;;;;;;1.75;0.80;;;;;;;17.83;nan;97847.31;7394888;19;20035;-53
2024/02/25 07:48:04;;;;;;;3.03;1.42;;;;;;;16.94;nan;97852.81;7394906;19;20018;-52
2024/02/25 07:50:30;;;;;;;5.70;2.60;;;;;;;17.40;nan;97848.50;7393274;19;20066;-52
2024/02/25 07:52:57;;;;;;;0.52;0.52;;;;;;;17.76;nan;97850.94;7394609;19;20020;-52
2024/02/25 07:55:25;;;;;;;4.65;1.52;;;;;;;17.76;nan;97854.50;7394325;19;20010;-52
2024/02/25 07:57:51;;;;;;;2.40;2.20;;;;;;;18.00;nan;97853.75;7393741;19;20033;-52
2024/02/25 08:00:17;;;;;;;1.20;0.82;;;;;;;18.08;nan;97860.06;7394743;19;20011;-52
2024/02/25 08:02:43;;;;;;;4.30;2.47;;;;;;;18.33;nan;97850.88;7397742;19;20014;-52
2024/02/25 08:05:09;;;;;;;1.95;0.77;;;;;;;18.52;nan;97865.19;7393422;19;20022;-53
2024/02/25 08:07:35;;;;;;;1.83;1.73;;;;;;;18.63;nan;97856.25;7393117;19;20007;-52
2024/02/25 08:10:02;;;;;;;1.02;1.02;;;;;;;18.89;nan;97859.16;7393468;19;20017;-52
2024/02/25 08:12:28;;;;;;;2.83;2.00;;;;;;;19.13;nan;97860.38;7395372;19;20014;-52
2024/02/25 08:14:55;;;;;;;0.75;0.75;;;;;;;19.28;nan;97859.44;7394431;19;20031;-52
2024/02/25 08:17:21;;;;;;;2.70;1.70;;;;;;;19.56;nan;97859.66;7393385;19;20061;-53
2024/02/25 08:19:47;;;;;;;4.72;1.70;;;;;;;20.62;nan;97860.13;7392597;19;20463;-52
2024/02/25 08:22:14;;;;;;;4.55;2.90;;;;;;;20.76;nan;97859.09;7393359;19;20022;-53
2024/02/25 08:24:41;;;;;;;6.63;4.07;;;;;;;20.77;nan;97863.38;7395088;19;20025;-53
2024/02/25 08:27:07;;;;;;;8.13;3.60;;;;;;;20.82;nan;97853.88;7391149;19;20017;-53
2024/02/25 08:29:33;;;;;;;20.83;8.10;;;;;;;20.92;nan;97853.88;7393017;19;20019;-53
2024/02/25 08:31:59;;;;;;;34.53;10.52;;;;;;;21.13;nan;97849.16;7396597;19;20029;-53
2024/02/25 08:34:25;;;;;;;29.98;8.07;;;;;;;21.39;nan;97850.31;7391979;19;20019;-53
2024/02/25 08:36:52;;;;;;;20.83;7.85;;;;;;;21.71;nan;97855.44;7394319;19;20030;-53
2024/02/25 08:39:19;;;;;;;13.50;6.57;;;;;;;18.50;nan;97859.38;7393924;19;20045;-53
2024/02/25 08:41:46;;;;;;;18.77;5.78;;;;;;;16.62;nan;97856.28;7392779;19;20070;-53
2024/02/25 08:44:12;;;;;;;14.90;5.40;;;;;;;22.55;nan;97840.75;7392226;19;20037;-53
2024/02/25 08:46:38;;;;;;;21.73;7.25;;;;;;;23.78;nan;97848.84;7393314;19;20355;-53
2024/02/25 08:49:04;;;;;;;11.68;4.15;;;;;;;24.87;nan;97849.84;7396291;19;20014;-54
2024/02/25 08:51:30;;;;;;;3.13;1.90;;;;;;;22.20;nan;97847.56;7399901;19;20399;-53
2024/02/25 08:53:56;;;;;;;7.50;4.07;;;;;;;19.36;nan;97860.16;7398576;19;20019;-54
2024/02/25 08:56:23;;;;;;;7.53;2.08;;;;;;;20.50;nan;97857.09;7398933;19;20354;-53
2024/02/25 08:58:49;;;;;;;4.22;3.28;;;;;;;19.55;nan;97855.38;7398532;19;20069;-53
2024/02/25 09:01:16;;;;;;;10.30;5.20;;;;;;;17.84;nan;97857.28;7402863;19;20070;-53
2024/02/25 09:03:42;;;;;;;7.53;2.65;;;;;;;18.08;nan;97857.25;7403363;19;20082;-54
2024/02/25 09:06:08;;;;;;;3.45;2.83;;;;;;;18.90;nan;97857.84;7402150;19;20010;-54
2024/02/25 09:08:36;;;;;;;1.38;1.27;;;;;;;20.26;nan;97855.25;7401986;19;20010;-54
2024/02/25 09:11:02;;;;;;;5.95;3.45;;;;;;;20.27;nan;97851.81;7402617;19;20018;-54
2024/02/25 09:13:28;;;;;;;5.28;1.80;;;;;;;20.00;nan;97856.03;7398834;19;20023;-54
2024/02/25 09:15:54;;;;;;;1.92;1.20;;;;;;;19.92;nan;97858.22;7401327;19;20018;-54
2024/02/25 09:18:21;;;;;;;3.67;2.85;;;;;;;19.90;nan;97860.91;7403559;19;20010;-54
2024/02/25 09:20:47;;;;;;;4.00;1.52;;;;;;;20.72;nan;97855.19;7398189;19;20417;-54
2024/02/25 09:23:13;;;;;;;1.52;1.20;;;;;;;20.52;nan;97860.09;7400711;19;20011;-54
2024/02/25 09:25:40;;;;;;;6.90;2.25;;;;;;;20.18;nan;97868.75;7400471;19;20039;-53
2024/02/25 09:28:08;;;;;;;4.80;3.10;;;;;;;20.86;nan;97859.06;7402311;19;20023;-54
2024/02/25 09:30:34;;;;;;;1.85;1.52;;;;;;;18.69;nan;97868.78;7399845;19;20102;-53
2024/02/25 09:33:03;;;;;;;11.35;1.88;;;;;;;18.36;nan;97861.00;7398114;19;20011;-54
2024/02/25 09:35:29;;;;;;;5.78;2.05;;;;;;;18.42;nan;97865.06;7401862;19;20467;-53
2024/02/25 09:37:55;;;;;;;4.50;2.17;;;;;;;18.45;nan;97869.56;7398901;19;20031;-53
2024/02/25 09:40:21;;;;;;;2.60;1.70;;;;;;;17.52;nan;97869.28;7398358;19;20481;-53
2024/02/25 09:42:47;;;;;;;2.00;1.70;;;;;;;17.27;nan;97868.44;7401223;19;20014;-54
2024/02/25 09:45:20;;;;;;;27.35;3.15;;;;;;;17.63;nan;97877.28;7400448;19;20407;-54
2024/02/25 09:47:51;;;;;;;2.30;1.65;;;;;;;18.03;nan;97871.59;7400772;19;20011;-54
2024/02/25 09:50:18;;;;;;;2.92;2.28;;;;;;;18.58;nan;97862.88;7402584;19;20014;-54
2024/02/25 09:52:46;;;;;;;7.53;2.63;;;;;;;18.81;nan;97854.94;7399153;19;20037;-54
2024/02/25 09:55:12;;;;;;;2.00;1.70;;;;;;;19.43;nan;97850.81;7397668;19;20015;-54
2024/02/25 09:57:38;;;;;;;7.63;1.98;;;;;;;20.50;nan;97845.78;7397441;19;20037;-54
2024/02/25 10:00:06;;;;;;;7.38;2.15;;;;;;;19.93;nan;97856.88;7396681;19;20014;-54
2024/02/25 10:02:32;;;;;;;2.08;1.77;;;;;;;19.58;nan;97854.19;7395005;19;20015;-54
2024/02/25 10:04:59;;;;;;;2.35;1.92;;;;;;;19.12;nan;97847.63;7395606;19;20010;-54
2024/02/25 10:07:25;;;;;;;3.95;1.30;;;;;;;19.20;nan;97848.28;7396783;19;20037;-53
2024/02/25 10:09:51;;;;;;;5.45;1.30;;;;;;;20.80;nan;97842.41;7397328;19;20462;-54
2024/02/25 10:12:17;;;;;;;9.60;2.83;;;;;;;20.06;nan;97848.75;7396689;19;20014;-54
2024/02/25 10:14:43;;;;;;;1.38;1.25;;;;;;;20.01;nan;97846.94;7397266;19;20044;-54
2024/02/25 10:17:12;;;;;;;3.28;1.38;;;;;;;19.88;nan;97843.78;7397187;19;20010;-53
2024/02/25 10:19:51;;;;;;;9.27;1.67;;;;;;;19.74;nan;97840.59;7399916;19;20010;-53
2024/02/25 10:22:17;;;;;;;3.63;2.58;;;;;;;19.47;nan;97834.19;7400029;19;20078;-53
2024/02/25 10:24:44;;;;;;;3.80;0.93;;;;;;;19.26;nan;97834.63;7395171;19;20554;-53
2024/02/25 10:27:14;;;;;;;1.90;1.15;;;;;;;19.78;nan;97832.44;7394407;19;20022;-53
2024/02/25 10:29:54;;;;;;;1.13;0.50;;;;;;;20.33;nan;97837.41;7396114;19;20015;-53
2024/02/25 10:32:27;;;;;;;1.88;1.00;;;;;;;19.69;nan;97833.13;7400684;19;20007;-53
2024/02/25 10:34:55;;;;;;;5.40;1.00;;;;;;;19.97;nan;97834.59;7396397;19;20469;-54
2024/02/25 10:37:24;;;;;;;2.88;1.63;;;;;;;20.52;nan;97825.41;7396835;19;20021;-53
2024/02/25 10:39:55;;;;;;;4.63;1.83;;;;;;;19.68;nan;97837.28;7395999;19;20014;-53
2024/02/25 10:42:23;;;;;;;1.55;0.73;;;;;;;20.33;nan;97831.78;7395716;19;20335;-54
2024/02/25 10:44:56;;;;;;;1.40;1.23;;;;;;;21.34;nan;97833.59;7397399;19;20098;-53
2024/02/25 10:47:23;;;;;;;1.67;1.58;;;;;;;22.77;nan;97841.53;7398950;19;20010;-54
2024/02/25 10:49:52;;;;;;;0.90;0.90;;;;;;;22.13;nan;97826.53;7395566;19;20498;-54
2024/02/25 10:52:23;;;;;;;10.65;1.13;;;;;;;21.36;nan;97834.50;7395691;19;20006;-53
2024/02/25 10:54:50;;;;;;;;;;;;;;;21.25;nan;97825.88;7395387;19;20070;-54
2024/02/25 10:57:17;;;;;;;1.48;1.38;;;;;;;20.88;nan;97823.19;7398877;19;19922;-54
2024/02/25 10:59:48;;;;;;;3.25;1.40;;;;;;;20.22;nan;97833.09;7395978;19;20011;-53
2024/02/25 11:02:17;;;;;;;4.75;1.92;;;;;;;19.93;nan;97837.09;7394596;19;20500;-53
2024/02/25 11:04:45;;;;;;;0.60;0.57;;;;;;;19.67;nan;97825.25;7395753;19;20007;-53
2024/02/25 11:07:11;;;;;;;0.45;0.45;;;;;;;20.46;nan;97822.13;7395462;19;20024;-53
2024/02/25 11:09:38;;;;;;;1.20;0.98;;;;;;;21.65;nan;97817.44;7399642;19;20015;-53
2024/02/25 11:12:14;;;;;;;1.95;0.63;;;;;;;21.02;nan;97824.25;7394108;19;20029;-53
2024/02/25 11:15:07;;;;;;;1.52;0.93;;;;;;;20.05;nan;97812.63;7395583;19;20066;-53
2024/02/25 11:17:39;;;;;;;2.33;1.05;;;;;;;19.67;nan;97822.44;7395245;19;20085;-54
2024/02/25 11:20:11;;;;;;;1.63;0.60;;;;;;;20.72;nan;97819.19;7397581;19;20018;-53
2024/02/25 11:22:49;;;;;;;0.98;0.68;;;;;;;19.97;nan;97817.63;7395055;19;20027;-53
2024/02/25 11:25:39;;;;;;;2.95;0.55;;;;;;;20.16;nan;97818.44;7394731;19;20018;-53
2024/02/25 11:28:09;;;;;;;0.47;0.47;;;;;;;20.25;nan;97808.53;7394473;19;20402;-53
2024/02/25 11:30:43;;;;;;;0.80;0.65;;;;;;;20.77;nan;97809.63;7394783;19;20027;-53
2024/02/25 11:33:38;;;;;;;3.05;1.35;;;;;;;20.23;nan;97811.94;7394198;19;20340;-53
2024/02/25 11:36:15;;;;;;;2.03;1.63;;;;;;;21.70;nan;97807.91;7397764;19;20462;-53
2024/02/25 11:38:44;;;;;;;1.05;0.95;;;;;;;22.29;nan;97804.94;7399327;19;20022;-53
2024/02/25 11:41:11;;;;;;;2.38;1.13;;;;;;;22.98;nan;97812.38;7394791;19;20026;-54
2024/02/25 11:43:38;;;;;;;0.80;0.65;;;;;;;22.41;nan;97817.13;7396462;19;20010;-53
2024/02/25 11:46:07;;;;;;;1.15;0.95;;;;;;;21.16;nan;97826.66;7395518;19;20014;-53
2024/02/25 11:48:34;;;;;;;0.40;0.40;;;;;;;20.44;nan;97831.19;7393761;19;20022;-53